Time,TemperatureF,DewpointF,PressureIn,WindDirection,WindDirectionDegrees,WindSpeedMPH,WindSpeedGustMPH,Humidity,HourlyPrecipIn,Conditions,Clouds,dailyrainin,SoftwareType,DateUTC
2013-03-16 00:08:00,46.2,36.0,29.87,South,184,1.0,4.0,67,0.00,,,0.00,weatherlink.com 1.10,2013-03-16 04:08:00,
2013-03-16 00:23:00,45.4,35.0,29.86,SSW,213,0.0,3.0,68,0.00,,,0.00,weatherlink.com 1.10,2013-03-16 04:23:00,
2013-03-16 00:38:00,44.4,36.0,29.86,SSW,209,3.0,4.0,71,0.00,,,0.00,weatherlink.com 1.10,2013-03-16 04:38:00,
2013-03-16 00:53:00,43.4,35.0,29.85,SSW,209,2.0,6.0,73,0.00,,,0.00,weatherlink.com 1.10,2013-03-16 04:53:00,
2013-03-16 01:08:00,43.5,35.0,29.85,SSW,200,1.0,5.0,73,0.00,,,0.00,weatherlink.com 1.10,2013-03-16 05:08:00,
2013-03-16 01:23:00,42.9,36.0,29.84,SSW,205,2.0,7.0,75,0.00,,,0.00,weatherlink.com 1.10,2013-03-16 05:23:00,
2013-03-16 01:38:00,43.2,36.0,29.84,SW,232,3.0,7.0,75,0.00,,,0.00,weatherlink.com 1.10,2013-03-16 05:38:00,
2013-03-16 01:53:00,43.9,36.0,29.83,SSE,162,3.0,9.0,74,0.00,,,0.00,weatherlink.com 1.10,2013-03-16 05:53:00,
2013-03-16 02:08:00,44.7,37.0,29.83,SSW,213,4.0,9.0,73,0.00,,,0.00,weatherlink.com 1.10,2013-03-16 06:08:00,
2013-03-16 02:23:00,45.4,37.0,29.82,SW,232,1.0,7.0,73,0.00,,,0.00,weatherlink.com 1.10,2013-03-16 06:23:00,
2013-03-16 02:38:00,45.4,37.0,29.82,SSW,207,3.0,6.0,73,0.00,,,0.00,weatherlink.com 1.10,2013-03-16 06:38:00,
2013-03-16 02:53:00,45.2,37.0,29.82,SW,216,1.0,7.0,73,0.00,,,0.00,weatherlink.com 1.10,2013-03-16 06:53:00,
2013-03-16 03:08:00,45.4,37.0,29.82,SSW,205,1.0,5.0,73,0.00,,,0.00,weatherlink.com 1.10,2013-03-16 07:08:00,
2013-03-16 03:23:00,44.8,37.0,29.81,SW,227,3.0,6.0,74,0.00,,,0.00,weatherlink.com 1.10,2013-03-16 07:23:00,
2013-03-16 03:38:00,45.0,37.0,29.80,SW,234,2.0,5.0,74,0.00,,,0.00,weatherlink.com 1.10,2013-03-16 07:38:00,
2013-03-16 03:53:00,45.0,37.0,29.80,SW,219,2.0,3.0,74,0.00,,,0.00,weatherlink.com 1.10,2013-03-16 07:53:00,
2013-03-16 04:08:00,44.0,37.0,29.80,SW,215,0.0,6.0,76,0.00,,,0.00,weatherlink.com 1.10,2013-03-16 08:08:00,
2013-03-16 04:23:00,43.5,37.0,29.79,SW,231,0.0,3.0,77,0.00,,,0.00,weatherlink.com 1.10,2013-03-16 08:23:00,
2013-03-16 04:38:00,42.3,36.0,29.79,SW,225,2.0,4.0,79,0.00,,,0.00,weatherlink.com 1.10,2013-03-16 08:38:00,
2013-03-16 04:54:00,42.1,36.0,29.78,SW,228,0.0,4.0,80,0.00,,,0.00,weatherlink.com 1.10,2013-03-16 08:54:00,
2013-03-16 05:09:00,42.6,37.0,29.79,SSW,213,1.0,4.0,80,0.00,,,0.00,weatherlink.com 1.10,2013-03-16 09:09:00,
2013-03-16 05:24:00,42.5,37.0,29.79,SSW,212,1.0,5.0,80,0.00,,,0.00,weatherlink.com 1.10,2013-03-16 09:24:00,
2013-03-16 05:39:00,42.8,37.0,29.79,SSW,202,1.0,7.0,81,0.00,,,0.00,weatherlink.com 1.10,2013-03-16 09:39:00,
2013-03-16 05:54:00,43.9,38.0,29.79,SW,215,1.0,7.0,80,0.00,,,0.00,weatherlink.com 1.10,2013-03-16 09:54:00,
2013-03-16 06:09:00,43.9,38.0,29.79,SSW,207,1.0,6.0,79,0.00,,,0.00,weatherlink.com 1.10,2013-03-16 10:09:00,
2013-03-16 06:24:00,43.7,38.0,29.79,SSW,212,1.0,4.0,81,0.00,,,0.00,weatherlink.com 1.10,2013-03-16 10:24:00,
2013-03-16 06:39:00,43.9,38.0,29.80,WSW,237,0.0,5.0,81,0.00,,,0.00,weatherlink.com 1.10,2013-03-16 10:39:00,
2013-03-16 06:54:00,43.8,39.0,29.80,SW,216,0.0,3.0,82,0.00,,,0.00,weatherlink.com 1.10,2013-03-16 10:54:00,
2013-03-16 07:09:00,43.8,38.0,29.79,SW,222,2.0,5.0,81,0.00,,,0.00,weatherlink.com 1.10,2013-03-16 11:09:00,
2013-03-16 07:24:00,43.8,39.0,29.79,WSW,246,1.0,8.0,82,0.00,,,0.00,weatherlink.com 1.10,2013-03-16 11:24:00,
2013-03-16 07:39:00,43.9,39.0,29.79,SW,225,4.0,6.0,84,0.00,,,0.00,weatherlink.com 1.10,2013-03-16 11:39:00,
2013-03-16 07:54:00,44.4,40.0,29.78,WSW,247,2.0,8.0,85,0.00,,,0.00,weatherlink.com 1.10,2013-03-16 11:54:00,
2013-03-16 08:09:00,45.0,41.0,29.78,SW,216,1.0,5.0,85,0.00,,,0.00,weatherlink.com 1.10,2013-03-16 12:09:00,
2013-03-16 08:24:00,45.8,42.0,29.79,SW,234,1.0,6.0,86,0.00,,,0.00,weatherlink.com 1.10,2013-03-16 12:24:00,
2013-03-16 08:39:00,46.9,42.0,29.79,SW,232,2.0,8.0,84,0.00,,,0.00,weatherlink.com 1.10,2013-03-16 12:39:00,
2013-03-16 08:54:00,48.0,43.0,29.79,WSW,248,5.0,7.0,84,0.00,,,0.00,weatherlink.com 1.10,2013-03-16 12:54:00,
2013-03-16 09:09:00,49.7,45.0,29.79,SW,222,4.0,7.0,83,0.00,,,0.00,weatherlink.com 1.10,2013-03-16 13:09:00,
2013-03-16 09:24:00,54.2,46.0,29.79,WSW,247,2.0,11.0,73,0.00,,,0.00,weatherlink.com 1.10,2013-03-16 13:24:00,
2013-03-16 09:39:00,56.2,46.0,29.79,WSW,244,6.0,9.0,69,0.00,,,0.00,weatherlink.com 1.10,2013-03-16 13:39:00,
2013-03-16 09:54:00,57.5,46.0,29.78,SW,226,2.0,10.0,65,0.00,,,0.00,weatherlink.com 1.10,2013-03-16 13:54:00,
2013-03-16 10:09:00,58.7,46.0,29.78,West,261,1.0,10.0,63,0.00,,,0.00,weatherlink.com 1.10,2013-03-16 14:09:00,
2013-03-16 10:24:00,60.5,46.0,29.77,SW,227,3.0,7.0,60,0.00,,,0.00,weatherlink.com 1.10,2013-03-16 14:24:00,
2013-03-16 10:39:00,61.2,47.0,29.77,SW,221,4.0,9.0,59,0.00,,,0.00,weatherlink.com 1.10,2013-03-16 14:39:00,
2013-03-16 10:54:00,62.4,47.0,29.76,SSW,213,3.0,8.0,57,0.00,,,0.00,weatherlink.com 1.10,2013-03-16 14:54:00,
2013-03-16 11:09:00,64.6,47.0,29.76,WSW,240,3.0,11.0,54,0.00,,,0.00,weatherlink.com 1.10,2013-03-16 15:09:00,
2013-03-16 11:25:00,66.8,48.0,29.75,SW,231,6.0,14.0,51,0.00,,,0.00,weatherlink.com 1.10,2013-03-16 15:25:00,
2013-03-16 11:40:00,69.4,49.0,29.74,WSW,254,3.0,14.0,49,0.00,,,0.00,weatherlink.com 1.10,2013-03-16 15:40:00,
2013-03-16 11:55:00,69.3,48.0,29.73,West,267,3.0,19.0,47,0.00,,,0.00,weatherlink.com 1.10,2013-03-16 15:55:00,
2013-03-16 12:10:00,70.7,48.0,29.73,WSW,245,5.0,19.0,44,0.00,,,0.00,weatherlink.com 1.10,2013-03-16 16:10:00,
2013-03-16 12:25:00,70.8,48.0,29.72,SSW,193,5.0,20.0,44,0.00,,,0.00,weatherlink.com 1.10,2013-03-16 16:25:00,
2013-03-16 12:40:00,70.6,48.0,29.72,SSW,207,4.0,20.0,44,0.00,,,0.00,weatherlink.com 1.10,2013-03-16 16:40:00,
2013-03-16 12:55:00,71.1,49.0,29.72,SW,225,7.0,18.0,45,0.00,,,0.00,weatherlink.com 1.10,2013-03-16 16:55:00,
2013-03-16 13:10:00,73.3,48.0,29.71,SW,225,3.0,20.0,41,0.00,,,0.00,weatherlink.com 1.10,2013-03-16 17:10:00,
2013-03-16 13:25:00,72.7,48.0,29.71,South,175,12.0,16.0,42,0.00,,,0.00,weatherlink.com 1.10,2013-03-16 17:25:00,
2013-03-16 13:40:00,74.3,49.0,29.70,WNW,296,4.0,17.0,41,0.00,,,0.00,weatherlink.com 1.10,2013-03-16 17:40:00,
2013-03-16 13:55:00,74.4,48.0,29.70,South,169,9.0,15.0,40,0.00,,,0.00,weatherlink.com 1.10,2013-03-16 17:55:00,
2013-03-16 14:10:00,74.0,47.0,29.69,WSW,238,6.0,16.0,39,0.00,,,0.00,weatherlink.com 1.10,2013-03-16 18:10:00,
2013-03-16 14:25:00,74.9,48.0,29.68,NW,317,5.0,19.0,39,0.00,,,0.00,weatherlink.com 1.10,2013-03-16 18:25:00,
2013-03-16 14:40:00,74.9,49.0,29.67,SSE,153,3.0,19.0,40,0.00,,,0.00,weatherlink.com 1.10,2013-03-16 18:40:00,
2013-03-16 14:55:00,74.8,48.0,29.66,SSW,202,8.0,18.0,39,0.00,,,0.00,weatherlink.com 1.10,2013-03-16 18:55:00,
2013-03-16 15:10:00,74.8,49.0,29.66,WSW,252,4.0,17.0,40,0.00,,,0.00,weatherlink.com 1.10,2013-03-16 19:10:00,
2013-03-16 15:25:00,74.9,48.0,29.65,West,272,2.0,14.0,39,0.00,,,0.00,weatherlink.com 1.10,2013-03-16 19:25:00,
2013-03-16 15:40:00,75.7,48.0,29.65,SSW,209,4.0,20.0,38,0.00,,,0.00,weatherlink.com 1.10,2013-03-16 19:40:00,
2013-03-16 15:55:00,75.7,49.0,29.65,SW,232,3.0,21.0,39,0.00,,,0.00,weatherlink.com 1.10,2013-03-16 19:55:00,
2013-03-16 16:10:00,75.4,49.0,29.64,SSE,167,9.0,17.0,39,0.00,,,0.00,weatherlink.com 1.10,2013-03-16 20:10:00,
2013-03-16 16:25:00,75.0,48.0,29.64,WSW,244,10.0,20.0,39,0.00,,,0.00,weatherlink.com 1.10,2013-03-16 20:25:00,
2013-03-16 16:40:00,75.2,49.0,29.63,SW,233,4.0,15.0,40,0.00,,,0.00,weatherlink.com 1.10,2013-03-16 20:40:00,
2013-03-16 16:55:00,75.3,49.0,29.62,WSW,238,3.0,17.0,39,0.00,,,0.00,weatherlink.com 1.10,2013-03-16 20:55:00,
2013-03-16 17:10:00,76.1,49.0,29.62,WSW,243,3.0,17.0,39,0.00,,,0.00,weatherlink.com 1.10,2013-03-16 21:10:00,
2013-03-16 17:25:00,76.1,49.0,29.61,South,177,6.0,20.0,38,0.00,,,0.00,weatherlink.com 1.10,2013-03-16 21:25:00,
2013-03-16 17:40:00,74.3,48.0,29.61,SW,220,5.0,21.0,39,0.00,,,0.00,weatherlink.com 1.10,2013-03-16 21:40:00,
2013-03-16 17:55:00,74.2,49.0,29.61,South,186,4.0,19.0,41,0.00,,,0.00,weatherlink.com 1.10,2013-03-16 21:55:00,
2013-03-16 18:10:00,73.1,48.0,29.62,SSW,213,5.0,16.0,41,0.00,,,0.00,weatherlink.com 1.10,2013-03-16 22:10:00,
2013-03-16 18:25:00,72.6,47.0,29.62,SW,236,8.0,14.0,41,0.00,,,0.00,weatherlink.com 1.10,2013-03-16 22:25:00,
2013-03-16 18:40:00,72.0,48.0,29.62,West,259,13.0,19.0,43,0.00,,,0.00,weatherlink.com 1.10,2013-03-16 22:40:00,
2013-03-16 18:55:00,71.6,47.0,29.63,WSW,239,10.0,18.0,42,0.00,,,0.00,weatherlink.com 1.10,2013-03-16 22:55:00,
2013-03-16 19:10:00,70.6,48.0,29.63,WSW,253,8.0,16.0,44,0.00,,,0.00,weatherlink.com 1.10,2013-03-16 23:10:00,
2013-03-16 19:26:00,69.9,47.0,29.64,SSW,210,4.0,16.0,44,0.00,,,0.00,weatherlink.com 1.10,2013-03-16 23:26:00,
2013-03-16 19:40:00,69.2,47.0,29.66,WSW,241,9.0,12.0,46,0.00,,,0.00,weatherlink.com 1.10,2013-03-16 23:40:00,
2013-03-16 19:56:00,70.3,47.0,29.70,NNW,336,5.0,9.0,44,0.00,,,0.00,weatherlink.com 1.10,2013-03-16 23:56:00,
2013-03-16 20:11:00,67.3,54.0,29.72,NNW,334,6.0,21.0,63,0.00,,,0.00,weatherlink.com 1.10,2013-03-17 00:11:00,
2013-03-16 20:26:00,64.1,55.0,29.73,North,9,2.0,10.0,72,0.00,,,0.00,weatherlink.com 1.10,2013-03-17 00:26:00,
2013-03-16 20:41:00,62.4,55.0,29.74,West,274,2.0,7.0,77,0.00,,,0.00,weatherlink.com 1.10,2013-03-17 00:41:00,
2013-03-16 20:56:00,62.5,55.0,29.75,West,277,1.0,5.0,77,0.00,,,0.00,weatherlink.com 1.10,2013-03-17 00:56:00,
2013-03-16 21:11:00,62.7,55.0,29.75,SW,233,2.0,10.0,76,0.00,,,0.00,weatherlink.com 1.10,2013-03-17 01:11:00,
2013-03-16 21:26:00,63.1,54.0,29.76,West,265,3.0,8.0,73,0.00,,,0.00,weatherlink.com 1.10,2013-03-17 01:26:00,
2013-03-16 21:41:00,62.9,54.0,29.76,West,278,1.0,3.0,72,0.00,,,0.00,weatherlink.com 1.10,2013-03-17 01:41:00,
2013-03-16 21:56:00,62.0,54.0,29.77,West,279,1.0,3.0,74,0.00,,,0.00,weatherlink.com 1.10,2013-03-17 01:56:00,
2013-03-16 22:11:00,61.4,53.0,29.77,West,277,0.0,3.0,75,0.00,,,0.00,weatherlink.com 1.10,2013-03-17 02:11:00,
2013-03-16 22:26:00,61.6,53.0,29.77,West,270,1.0,4.0,74,0.00,,,0.00,weatherlink.com 1.10,2013-03-17 02:26:00,
2013-03-16 22:41:00,60.7,53.0,29.78,SW,232,2.0,6.0,76,0.00,,,0.00,weatherlink.com 1.10,2013-03-17 02:41:00,
2013-03-16 22:56:00,59.1,53.0,29.78,SW,223,1.0,6.0,80,0.00,,,0.00,weatherlink.com 1.10,2013-03-17 02:56:00,
2013-03-16 23:26:00,58.7,53.0,29.79,SW,231,1.0,7.0,80,0.00,,,0.00,weatherlink.com 1.10,2013-03-17 03:26:00,
2013-03-16 23:41:00,57.8,52.0,29.79,WNW,286,4.0,7.0,81,0.00,,,0.00,weatherlink.com 1.10,2013-03-17 03:41:00,
2013-03-16 23:56:00,58.0,52.0,29.79,West,263,1.0,7.0,81,0.00,,,0.00,weatherlink.com 1.10,2013-03-17 03:56:00,